Links Sitemap Venhuizerweer voor mobiel

AMSTERDAM SCHIPHOL:
Amsterdam Airport Schiphol, Netherlands (EHAM) 52-18N 004-46E -2M
Oct 20, 2021 - 05:55 AM EDT / 2021.10.20 0955 UTC
Wind: from the SSW (210 degrees) at 24 MPH (21 KT):0
Visibility: greater than 7 mile(s):0
Sky conditions: mostly cloudy
Temperature: 60 F (16 C)
Dew Point: 57 F (14 C)
Relative Humidity: 87%
Pressure (altimeter): 29.56 in. Hg (1001 hPa)
ob: EHAM 200955Z 21021KT 9999 FEW012 BKN017 16/14 Q1001 NOSIG
cycle: 10
DEELEN:
Deelen, Netherlands (EHDL) 52-04N 005-53E 52M
Oct 20, 2021 - 05:55 AM EDT / 2021.10.20 0955 UTC
Wind: from the SSW (210 degrees) at 21 MPH (18 KT) (direction variable):0
Visibility: greater than 7 mile(s):0
Sky conditions: overcast
Temperature: 60 F (16 C)
Dew Point: 57 F (14 C)
Relative Humidity: 87%
Pressure (altimeter): 29.62 in. Hg (1003 hPa)
ob: EHDL 200955Z AUTO 21018KT 140V280 9999 OVC015 16/14 Q1003 WHT
cycle: 10
DE KOOY:
De Kooy, Netherlands (EHKD) 52-55N 004-47E 14M
Oct 20, 2021 - 05:56 AM EDT / 2021.10.20 0956 UTC
Wind: from the SSW (210 degrees) at 24 MPH (21 KT):0
Visibility: 2 mile(s):0
Sky conditions: mostly cloudy
Weather: rain showers; Cumulonimbus clouds observed
Temperature: 59 F (15 C)
Dew Point: 57 F (14 C)
Relative Humidity: 93%
Pressure (altimeter): 29.50 in. Hg (0999 hPa)
ob: EHKD 200956Z AUTO 21021KT 3500 R21/P3000N SHRA FEW003 SCT010 BKN012 FEW015CB 15/14 Q0999 YLO TEMPO 3500 SHRA FEW007 SCT010 SCT020CB
cycle: 10
EELDE:
Groningen Airport Eelde, Netherlands (EHGG) 53-08N 006-35E 4M
Oct 20, 2021 - 05:55 AM EDT / 2021.10.20 0955 UTC
Wind: from the SW (220 degrees) at 23 MPH (20 KT) (direction variable):0
Visibility: greater than 7 mile(s):0
Sky conditions: overcast
Temperature: 60 F (16 C)
Dew Point: 55 F (13 C)
Relative Humidity: 82%
Pressure (altimeter): 29.53 in. Hg (1000 hPa)
ob: EHGG 200955Z AUTO 22020KT 190V260 9999 BKN016 OVC019 16/13 Q1000 TEMPO 22018G28KT BKN012
cycle: 10
EINDHOVEN:
Eindhoven, Netherlands (EHEH) 51-27N 005-25E 28M
Oct 20, 2021 - 05:55 AM EDT / 2021.10.20 0955 UTC
Wind: from the SSW (210 degrees) at 23 MPH (20 KT) (direction variable):0
Visibility: greater than 7 mile(s):0
Sky conditions: mostly cloudy
Temperature: 64 F (18 C)
Dew Point: 57 F (14 C)
Relative Humidity: 77%
Pressure (altimeter): 29.65 in. Hg (1004 hPa)
ob: EHEH 200955Z AUTO 21020KT 190V250 9999 SCT021 SCT024 BKN089 18/14 Q1004 WHT TEMPO 23018G30KT
cycle: 10
GILZE-RIJEN:
Gilze-Rijen, Netherlands (EHGR) 51-34N 004-56E 24M
Oct 20, 2021 - 05:55 AM EDT / 2021.10.20 0955 UTC
Wind: from the SSW (210 degrees) at 16 MPH (14 KT) (direction variable):0
Visibility: greater than 7 mile(s):0
Sky conditions: overcast
Temperature: 62 F (17 C)
Dew Point: 55 F (13 C)
Relative Humidity: 77%
Pressure (altimeter): 29.65 in. Hg (1004 hPa)
ob: EHGR 200955Z AUTO 21014KT 160V260 9999 BKN017 OVC020 17/13 Q1004 WHT TEMPO 21015G25KT FEW015 SCT035
cycle: 10
LEEUWARDEN:
Leeuwarden, Netherlands (EHLW) 53-13N 005-46E 11M
Oct 20, 2021 - 05:55 AM EDT / 2021.10.20 0955 UTC
Wind: from the SSW (200 degrees) at 16 MPH (14 KT) (direction variable):0
Visibility: greater than 7 mile(s):0
Sky conditions: mostly cloudy
Weather: light drizzle; Cumulonimbus clouds observed
Temperature: 59 F (15 C)
Dew Point: 57 F (14 C)
Relative Humidity: 93%
Pressure (altimeter): 29.50 in. Hg (0999 hPa)
ob: EHLW 200955Z AUTO 20014KT 170V230 9999 -DZ SCT013 BKN018 BKN021 15/14 Q0999 REDZ GRN TEMPO 4000 SHRA SCT007 BKN010 SCT020CB
cycle: 10
MAASTRICHT:
Maastricht Airport Zuid Limburg, Netherlands (EHBK) 50-55N 005-47E 116M
Oct 20, 2021 - 05:55 AM EDT / 2021.10.20 0955 UTC
Wind: from the SSW (210 degrees) at 21 MPH (18 KT) gusting to 32 MPH (28 KT) (direction variable):0
Visibility: greater than 7 mile(s):0
Sky conditions: overcast
Temperature: 62 F (17 C)
Dew Point: 53 F (12 C)
Relative Humidity: 72%
Pressure (altimeter): 29.71 in. Hg (1006 hPa)
ob: EHBK 200955Z AUTO 21018G28KT 180V240 9999 BKN033 OVC037 17/12 Q1006 NOSIG
cycle: 10
ROTTERDAM ZESTIENHOVEN:
Rotterdam Airport Zestienhoven, Netherlands (EHRD) 51-57N 004-27E -4M
Oct 20, 2021 - 05:55 AM EDT / 2021.10.20 0955 UTC
Wind: from the SSW (210 degrees) at 22 MPH (19 KT) gusting to 33 MPH (29 KT) (direction variable):0
Visibility: greater than 7 mile(s):0
Sky conditions: overcast
Temperature: 62 F (17 C)
Dew Point: 57 F (14 C)
Relative Humidity: 82%
Pressure (altimeter): 29.59 in. Hg (1002 hPa)
ob: EHRD 200955Z AUTO 21019G29KT 170V250 9999 SCT014 BKN016 OVC020 17/14 Q1002 NOSIG
cycle: 10
SOESTERBERG:
Soesterberg, Netherlands (EHSB) 52-08N 005-17E 25M
Nov 20, 2008 - 04:25 AM EST / 2008.11.20 0925 UTC
Wind: from the W (280 degrees) at 16 MPH (14 KT):0
Visibility: greater than 7 mile(s):0
Temperature: 51 F (11 C)
Dew Point: 48 F (9 C)
Relative Humidity: 87%
Pressure (altimeter): 29.83 in. Hg (1010 hPa)
ob: EHSB 200925Z AUTO 28014KT 9999 // 11/09 Q1010
cycle: 9
TWENTE:
Twenthe, Netherlands (EHTW) 52-16N 006-54E 57M
Apr 07, 2008 - 08:25 AM EDT / 2008.04.07 1225 UTC
Wind: from the N (010 degrees) at 7 MPH (6 KT):0
Sky conditions: mostly cloudy
Temperature: 46 F (8 C)
Dew Point: 24 F (-4 C)
Relative Humidity: 42%
Pressure (altimeter): 29.59 in. Hg (1002 hPa)
ob: EHTW 071225Z AUTO 01006KT //// // BKN200/// 08/M04 Q1002 RE//
cycle: 12
VALKENBURG:
Valkenburg, Netherlands (EHVB) 52-11N 004-25E 2M
Apr 01, 2010 - 03:55 AM EDT / 2010.04.01 0755 UTC
Wind: from the WSW (250 degrees) at 20 MPH (17 KT):0
Sky conditions: mostly cloudy
Temperature: 41 F (5 C)
Dew Point: 33 F (1 C)
Relative Humidity: 75%
Pressure (altimeter): 29.62 in. Hg (1003 hPa)
ob: EHVB 010755Z AUTO 25017KT 9999NDV FEW021/// BKN037/// 05/01 Q1003 BLU
cycle: 8
VLIELAND:
Vlieland, Netherlands (EHVL) 53-15N 004-55E 12M
Oct 20, 2021 - 05:55 AM EDT / 2021.10.20 0955 UTC
Wind: from the SSW (210 degrees) at 31 MPH (27 KT):0
Visibility: greater than 7 mile(s):0
Sky conditions: mostly cloudy
Weather: light rain
Temperature: 60 F (16 C)
Dew Point: 57 F (14 C)
Relative Humidity: 87%
Pressure (altimeter): 29.47 in. Hg (0998 hPa)
ob: EHVL 200955Z AUTO 21027KT 9999 -RA FEW010 SCT014 BKN018 16/14 Q0998 GRN
cycle: 10
VOLKEL:
Volkel, Netherlands (EHVK) 51-39N 005-42E 21M
Oct 20, 2021 - 05:55 AM EDT / 2021.10.20 0955 UTC
Wind: from the SW (220 degrees) at 23 MPH (20 KT) (direction variable):0
Visibility: greater than 7 mile(s):0
Sky conditions: overcast
Temperature: 62 F (17 C)
Dew Point: 55 F (13 C)
Relative Humidity: 77%
Pressure (altimeter): 29.65 in. Hg (1004 hPa)
ob: EHVK 200955Z AUTO 22020KT 180V250 9999 BKN019 OVC023 17/13 Q1004 WHT TEMPO 21015G25KT SCT018 BKN080
cycle: 10
WOENSDRECHT:
Woensdrecht, Netherlands (EHWO) 51-27N 004-20E 17M
Oct 20, 2021 - 05:55 AM EDT / 2021.10.20 0955 UTC
Wind: from the SW (220 degrees) at 17 MPH (15 KT) (direction variable):0
Visibility: greater than 7 mile(s):0
Sky conditions: overcast
Temperature: 62 F (17 C)
Dew Point: 57 F (14 C)
Relative Humidity: 82%
Pressure (altimeter): 29.62 in. Hg (1003 hPa)
ob: EHWO 200955Z AUTO 22015KT 190V250 9999 BKN017 OVC020 17/14 Q1003 WHT
cycle: 10
Copyright © 2005 - 2021 Venhuizerweer - Alle Rechten Voorbehouden


3.236.218.88